sensor_id;sensor_type;location;lat;lon;timestamp;pressure;altitude;pressure_sealevel;temperature;humidity
72587;BME280;60621;49.576;11.024;2022-12-04T00:00:47;98200.00;;;3.95;74.63
72587;BME280;60621;49.576;11.024;2022-12-04T00:01:49;98200.44;;;3.97;74.63
72587;BME280;60621;49.576;11.024;2022-12-04T00:02:50;98191.84;;;3.96;74.76
72587;BME280;60621;49.576;11.024;2022-12-04T00:03:52;98195.53;;;3.95;74.26
72587;BME280;60621;49.576;11.024;2022-12-04T00:04:55;98194.44;;;3.96;74.25
72587;BME280;60621;49.576;11.024;2022-12-04T00:07:08;98191.09;;;3.96;74.99
72587;BME280;60621;49.576;11.024;2022-12-04T00:08:09;98184.34;;;3.95;74.53
72587;BME280;60621;49.576;11.024;2022-12-04T00:09:11;98182.47;;;3.95;74.83
72587;BME280;60621;49.576;11.024;2022-12-04T00:10:12;98185.53;;;3.97;74.48
72587;BME280;60621;49.576;11.024;2022-12-04T00:11:17;98177.13;;;3.92;74.22
72587;BME280;60621;49.576;11.024;2022-12-04T00:12:19;98182.03;;;3.93;75.21
72587;BME280;60621;49.576;11.024;2022-12-04T00:13:21;98185.09;;;3.95;74.27
72587;BME280;60621;49.576;11.024;2022-12-04T00:14:23;98181.41;;;3.96;74.58
72587;BME280;60621;49.576;11.024;2022-12-04T00:15:24;98174.81;;;3.90;74.11
72587;BME280;60621;49.576;11.024;2022-12-04T00:16:28;98169.28;;;3.92;74.63
72587;BME280;60621;49.576;11.024;2022-12-04T00:17:29;98170.53;;;3.94;74.70
72587;BME280;60621;49.576;11.024;2022-12-04T00:18:31;98165.31;;;3.94;75.00
72587;BME280;60621;49.576;11.024;2022-12-04T00:19:33;98159.28;;;3.94;75.23
72587;BME280;60621;49.576;11.024;2022-12-04T00:20:38;98168.22;;;3.93;75.06
72587;BME280;60621;49.576;11.024;2022-12-04T00:21:40;98159.00;;;3.95;75.72
72587;BME280;60621;49.576;11.024;2022-12-04T00:22:41;98164.03;;;4.00;75.30
72587;BME280;60621;49.576;11.024;2022-12-04T00:23:43;98154.22;;;3.97;74.88
72587;BME280;60621;49.576;11.024;2022-12-04T00:24:45;98153.13;;;3.98;74.50
72587;BME280;60621;49.576;11.024;2022-12-04T00:25:46;98158.50;;;4.02;74.57
72587;BME280;60621;49.576;11.024;2022-12-04T00:26:49;98155.13;;;4.01;74.53
72587;BME280;60621;49.576;11.024;2022-12-04T00:27:50;98157.91;;;3.96;74.69
72587;BME280;60621;49.576;11.024;2022-12-04T00:28:53;98146.84;;;3.99;74.54
72587;BME280;60621;49.576;11.024;2022-12-04T00:29:54;98139.63;;;3.96;74.68
72587;BME280;60621;49.576;11.024;2022-12-04T00:30:56;98142.56;;;3.95;74.91
72587;BME280;60621;49.576;11.024;2022-12-04T00:31:58;98143.50;;;3.90;75.37
72587;BME280;60621;49.576;11.024;2022-12-04T00:32:59;98144.63;;;3.80;75.15
72587;BME280;60621;49.576;11.024;2022-12-04T00:34:01;98148.00;;;3.81;75.38
72587;BME280;60621;49.576;11.024;2022-12-04T00:35:08;98137.09;;;3.79;75.97
72587;BME280;60621;49.576;11.024;2022-12-04T00:36:13;98141.25;;;3.80;75.23
72587;BME280;60621;49.576;11.024;2022-12-04T00:37:15;98146.59;;;3.83;75.74
72587;BME280;60621;49.576;11.024;2022-12-04T00:38:17;98152.91;;;3.82;75.57
72587;BME280;60621;49.576;11.024;2022-12-04T00:39:18;98143.69;;;3.85;75.93
72587;BME280;60621;49.576;11.024;2022-12-04T00:40:20;98157.19;;;3.87;75.86
72587;BME280;60621;49.576;11.024;2022-12-04T00:41:24;98152.28;;;3.85;75.34
72587;BME280;60621;49.576;11.024;2022-12-04T00:42:26;98153.81;;;3.87;75.33
72587;BME280;60621;49.576;11.024;2022-12-04T00:43:27;98150.28;;;3.82;75.34
72587;BME280;60621;49.576;11.024;2022-12-04T00:44:29;98147.69;;;3.82;76.02
72587;BME280;60621;49.576;11.024;2022-12-04T00:45:31;98149.34;;;3.87;76.09
72587;BME280;60621;49.576;11.024;2022-12-04T00:46:32;98148.25;;;3.88;75.65
72587;BME280;60621;49.576;11.024;2022-12-04T00:47:34;98146.75;;;3.87;76.05
72587;BME280;60621;49.576;11.024;2022-12-04T00:48:36;98149.03;;;3.89;75.96
72587;BME280;60621;49.576;11.024;2022-12-04T00:49:37;98144.28;;;3.91;75.21
72587;BME280;60621;49.576;11.024;2022-12-04T00:50:39;98139.50;;;3.93;75.40
72587;BME280;60621;49.576;11.024;2022-12-04T00:51:40;98140.25;;;3.93;75.52
72587;BME280;60621;49.576;11.024;2022-12-04T00:52:42;98145.19;;;3.95;75.43
72587;BME280;60621;49.576;11.024;2022-12-04T00:53:43;98142.88;;;3.93;75.36
72587;BME280;60621;49.576;11.024;2022-12-04T00:54:45;98141.50;;;3.96;75.02
72587;BME280;60621;49.576;11.024;2022-12-04T00:55:46;98141.16;;;3.97;75.06
72587;BME280;60621;49.576;11.024;2022-12-04T00:56:48;98147.47;;;3.96;75.15
72587;BME280;60621;49.576;11.024;2022-12-04T00:57:49;98142.56;;;3.95;75.38
72587;BME280;60621;49.576;11.024;2022-12-04T00:58:58;98139.63;;;3.96;75.32
72587;BME280;60621;49.576;11.024;2022-12-04T01:00:01;98133.66;;;3.96;75.40
72587;BME280;60621;49.576;11.024;2022-12-04T01:01:06;98130.59;;;3.94;75.57
72587;BME280;60621;49.576;11.024;2022-12-04T01:02:08;98121.56;;;3.91;75.11
72587;BME280;60621;49.576;11.024;2022-12-04T01:03:10;98128.75;;;3.94;75.49
72587;BME280;60621;49.576;11.024;2022-12-04T01:04:11;98128.28;;;3.92;75.23
72587;BME280;60621;49.576;11.024;2022-12-04T01:05:13;98130.75;;;3.89;75.78
72587;BME280;60621;49.576;11.024;2022-12-04T01:06:23;98124.78;;;3.88;75.89
72587;BME280;60621;49.576;11.024;2022-12-04T01:07:25;98134.13;;;3.89;75.94
72587;BME280;60621;49.576;11.024;2022-12-04T01:08:27;98124.78;;;3.88;75.49
72587;BME280;60621;49.576;11.024;2022-12-04T01:09:29;98123.59;;;3.77;76.33
72587;BME280;60621;49.576;11.024;2022-12-04T01:10:30;98123.94;;;3.75;75.68
72587;BME280;60621;49.576;11.024;2022-12-04T01:11:32;98120.38;;;3.80;76.32
72587;BME280;60621;49.576;11.024;2022-12-04T01:12:34;98117.59;;;3.85;76.52
72587;BME280;60621;49.576;11.024;2022-12-04T01:13:36;98113.56;;;3.88;76.21
72587;BME280;60621;49.576;11.024;2022-12-04T01:14:37;98105.44;;;3.89;75.80
72587;BME280;60621;49.576;11.024;2022-12-04T01:15:40;98110.03;;;3.92;75.88
72587;BME280;60621;49.576;11.024;2022-12-04T01:16:45;98121.69;;;3.95;75.84
72587;BME280;60621;49.576;11.024;2022-12-04T01:17:46;98119.09;;;3.95;75.35
72587;BME280;60621;49.576;11.024;2022-12-04T01:18:49;98118.75;;;3.96;76.05
72587;BME280;60621;49.576;11.024;2022-12-04T01:19:51;98122.28;;;4.00;75.79
72587;BME280;60621;49.576;11.024;2022-12-04T01:20:52;98120.09;;;4.02;75.39
72587;BME280;60621;49.576;11.024;2022-12-04T01:21:54;98127.66;;;4.04;75.65
72587;BME280;60621;49.576;11.024;2022-12-04T01:22:55;98117.97;;;4.04;75.70
72587;BME280;60621;49.576;11.024;2022-12-04T01:23:57;98114.72;;;4.07;75.34
72587;BME280;60621;49.576;11.024;2022-12-04T01:24:59;98116.88;;;4.05;75.76
72587;BME280;60621;49.576;11.024;2022-12-04T01:26:00;98122.84;;;4.06;75.65
72587;BME280;60621;49.576;11.024;2022-12-04T01:27:02;98124.84;;;4.09;75.44
72587;BME280;60621;49.576;11.024;2022-12-04T01:28:03;98122.25;;;4.09;74.90
72587;BME280;60621;49.576;11.024;2022-12-04T01:29:05;98125.63;;;4.09;75.11
72587;BME280;60621;49.576;11.024;2022-12-04T01:30:07;98122.25;;;4.09;75.18
72587;BME280;60621;49.576;11.024;2022-12-04T01:31:14;98124.09;;;4.08;75.04
72587;BME280;60621;49.576;11.024;2022-12-04T01:32:16;98125.91;;;4.08;74.99
72587;BME280;60621;49.576;11.024;2022-12-04T01:33:18;98125.16;;;4.07;75.27
72587;BME280;60621;49.576;11.024;2022-12-04T01:34:19;98115.94;;;4.10;75.41
72587;BME280;60621;49.576;11.024;2022-12-04T01:35:20;98110.25;;;4.08;75.44
72587;BME280;60621;49.576;11.024;2022-12-04T01:36:25;98103.97;;;4.09;74.95
72587;BME280;60621;49.576;11.024;2022-12-04T01:37:30;98112.84;;;4.08;75.25
72587;BME280;60621;49.576;11.024;2022-12-04T01:38:32;98111.34;;;4.07;75.04
72587;BME280;60621;49.576;11.024;2022-12-04T01:39:35;98114.72;;;4.07;75.41
72587;BME280;60621;49.576;11.024;2022-12-04T01:40:42;98111.91;;;4.13;75.17
72587;BME280;60621;49.576;11.024;2022-12-04T01:41:44;98112.22;;;4.11;75.52
72587;BME280;60621;49.576;11.024;2022-12-04T01:42:46;98107.00;;;4.11;75.23
72587;BME280;60621;49.576;11.024;2022-12-04T01:44:16;98109.63;;;4.11;74.98
72587;BME280;60621;49.576;11.024;2022-12-04T01:46:31;98118.41;;;4.06;75.36
72587;BME280;60621;49.576;11.024;2022-12-04T01:47:32;98119.94;;;4.07;75.22
72587;BME280;60621;49.576;11.024;2022-12-04T01:48:51;98125.28;;;4.11;75.41
72587;BME280;60621;49.576;11.024;2022-12-04T01:49:53;98127.13;;;4.10;75.46
72587;BME280;60621;49.576;11.024;2022-12-04T01:51:09;98129.13;;;4.14;75.46
72587;BME280;60621;49.576;11.024;2022-12-04T01:52:19;98122.34;;;4.13;74.79
72587;BME280;60621;49.576;11.024;2022-12-04T01:53:22;98115.75;;;4.15;74.81
72587;BME280;60621;49.576;11.024;2022-12-04T01:54:27;98120.97;;;4.15;75.30
72587;BME280;60621;49.576;11.024;2022-12-04T01:55:30;98122.34;;;4.13;75.47
72587;BME280;60621;49.576;11.024;2022-12-04T01:56:37;98116.69;;;4.10;75.23
72587;BME280;60621;49.576;11.024;2022-12-04T01:57:40;98117.47;;;4.11;75.59
72587;BME280;60621;49.576;11.024;2022-12-04T01:58:46;98114.53;;;4.13;75.68
72587;BME280;60621;49.576;11.024;2022-12-04T01:59:56;98102.25;;;4.13;75.65
72587;BME280;60621;49.576;11.024;2022-12-04T02:01:01;98105.75;;;4.17;75.16
72587;BME280;60621;49.576;11.024;2022-12-04T02:02:13;98103.91;;;4.18;74.98
72587;BME280;60621;49.576;11.024;2022-12-04T02:03:16;98100.53;;;4.17;75.40
72587;BME280;60621;49.576;11.024;2022-12-04T02:04:18;98117.28;;;4.16;75.19
72587;BME280;60621;49.576;11.024;2022-12-04T02:05:20;98114.66;;;4.16;75.89
72587;BME280;60621;49.576;11.024;2022-12-04T02:06:22;98116.94;;;4.18;75.80
72587;BME280;60621;49.576;11.024;2022-12-04T02:07:24;98114.34;;;4.18;75.49
72587;BME280;60621;49.576;11.024;2022-12-04T02:08:27;98112.06;;;4.16;75.32
72587;BME280;60621;49.576;11.024;2022-12-04T02:09:29;98113.56;;;4.17;74.94
72587;BME280;60621;49.576;11.024;2022-12-04T02:11:56;98113.38;;;4.22;75.26
72587;BME280;60621;49.576;11.024;2022-12-04T02:16:53;98110.34;;;4.20;75.07
72587;BME280;60621;49.576;11.024;2022-12-04T02:18:09;98111.09;;;4.21;74.61
72587;BME280;60621;49.576;11.024;2022-12-04T02:21:08;98109.59;;;4.20;74.59
72587;BME280;60621;49.576;11.024;2022-12-04T02:22:30;98112.41;;;4.06;75.95
72587;BME280;60621;49.576;11.024;2022-12-04T02:29:58;98121.41;;;4.17;74.82
72587;BME280;60621;49.576;11.024;2022-12-04T02:31:03;98119.25;;;4.19;75.32
72587;BME280;60621;49.576;11.024;2022-12-04T02:33:27;98113.91;;;4.16;75.10
72587;BME280;60621;49.576;11.024;2022-12-04T02:34:43;98110.84;;;4.14;75.57
72587;BME280;60621;49.576;11.024;2022-12-04T02:35:52;98115.00;;;4.15;75.50
72587;BME280;60621;49.576;11.024;2022-12-04T02:37:02;98106.06;;;4.16;75.71
72587;BME280;60621;49.576;11.024;2022-12-04T02:38:11;98109.91;;;4.18;75.67
72587;BME280;60621;49.576;11.024;2022-12-04T02:39:21;98114.03;;;4.19;75.54
72587;BME280;60621;49.576;11.024;2022-12-04T02:40:29;98108.97;;;4.23;75.80
72587;BME280;60621;49.576;11.024;2022-12-04T02:41:43;98113.53;;;4.26;75.25
72587;BME280;60621;49.576;11.024;2022-12-04T02:44:07;98108.44;;;4.29;74.93
72587;BME280;60621;49.576;11.024;2022-12-04T02:45:19;98112.16;;;4.28;75.07
72587;BME280;60621;49.576;11.024;2022-12-04T02:46:32;98107.53;;;4.25;74.83
72587;BME280;60621;49.576;11.024;2022-12-04T02:47:37;98113.53;;;4.26;75.28
72587;BME280;60621;49.576;11.024;2022-12-04T02:48:41;98104.94;;;4.25;74.95
72587;BME280;60621;49.576;11.024;2022-12-04T02:50:00;98115.38;;;4.25;75.28
72587;BME280;60621;49.576;11.024;2022-12-04T02:51:04;98107.22;;;4.27;75.14
72587;BME280;60621;49.576;11.024;2022-12-04T02:52:12;98106.78;;;4.25;75.38
72587;BME280;60621;49.576;11.024;2022-12-04T02:53:26;98110.78;;;4.22;75.00
72587;BME280;60621;49.576;11.024;2022-12-04T02:54:33;98111.09;;;4.21;75.20
72587;BME280;60621;49.576;11.024;2022-12-04T02:55:42;98105.13;;;4.20;75.25
72587;BME280;60621;49.576;11.024;2022-12-04T02:56:45;98103.28;;;4.21;75.11
72587;BME280;60621;49.576;11.024;2022-12-04T02:57:52;98099.56;;;4.22;75.16
72587;BME280;60621;49.576;11.024;2022-12-04T02:58:59;98100.66;;;4.21;75.34
72587;BME280;60621;49.576;11.024;2022-12-04T03:00:04;98101.41;;;4.21;75.53
72587;BME280;60621;49.576;11.024;2022-12-04T03:01:10;98098.06;;;4.21;75.17
72587;BME280;60621;49.576;11.024;2022-12-04T03:02:25;98097.91;;;4.17;75.61
72587;BME280;60621;49.576;11.024;2022-12-04T03:03:30;98098.66;;;4.18;76.09
72587;BME280;60621;49.576;11.024;2022-12-04T03:04:35;98102.66;;;4.24;75.13
72587;BME280;60621;49.576;11.024;2022-12-04T03:06:57;98106.66;;;4.21;75.67
72587;BME280;60621;49.576;11.024;2022-12-04T03:08:06;98101.00;;;4.19;75.53
72587;BME280;60621;49.576;11.024;2022-12-04T03:09:55;98101.41;;;4.21;75.55
72587;BME280;60621;49.576;11.024;2022-12-04T03:10:40;98106.34;;;4.23;75.53
72587;BME280;60621;49.576;11.024;2022-12-04T03:11:49;98105.69;;;4.26;75.38
72587;BME280;60621;49.576;11.024;2022-12-04T03:12:55;98093.41;;;4.26;75.36
72587;BME280;60621;49.576;11.024;2022-12-04T03:14:01;98100.19;;;4.27;75.51
72587;BME280;60621;49.576;11.024;2022-12-04T03:15:15;98101.25;;;4.26;75.85
72587;BME280;60621;49.576;11.024;2022-12-04T03:16:22;98095.72;;;4.28;75.79
72587;BME280;60621;49.576;11.024;2022-12-04T03:17:32;98089.41;;;4.29;75.56
72587;BME280;60621;49.576;11.024;2022-12-04T03:18:42;98103.09;;;4.26;75.19
72587;BME280;60621;49.576;11.024;2022-12-04T03:19:50;98099.09;;;4.28;75.29
72587;BME280;60621;49.576;11.024;2022-12-04T03:21:00;98096.59;;;4.32;75.48
72587;BME280;60621;49.576;11.024;2022-12-04T03:22:07;98091.38;;;4.32;75.13
72587;BME280;60621;49.576;11.024;2022-12-04T03:23:14;98091.38;;;4.32;74.82
72587;BME280;60621;49.576;11.024;2022-12-04T03:24:22;98084.81;;;4.26;75.51
72587;BME280;60621;49.576;11.024;2022-12-04T03:25:31;98074.69;;;4.24;75.45
72587;BME280;60621;49.576;11.024;2022-12-04T03:26:37;98074.38;;;4.26;75.02
72587;BME280;60621;49.576;11.024;2022-12-04T03:27:57;98075.78;;;4.23;75.58
72587;BME280;60621;49.576;11.024;2022-12-04T03:29:21;98074.06;;;4.27;75.80
72587;BME280;60621;49.576;11.024;2022-12-04T03:30:25;98076.34;;;4.29;75.27
72587;BME280;60621;49.576;11.024;2022-12-04T03:32:50;98083.28;;;4.25;75.47
72587;BME280;60621;49.576;11.024;2022-12-04T03:33:55;98078.38;;;4.23;75.69
72587;BME280;60621;49.576;11.024;2022-12-04T03:37:24;98075.44;;;4.25;75.65
72587;BME280;60621;49.576;11.024;2022-12-04T03:38:43;98072.50;;;4.26;75.63
72587;BME280;60621;49.576;11.024;2022-12-04T03:40:08;98072.97;;;4.28;76.12
72587;BME280;60621;49.576;11.024;2022-12-04T03:41:17;98075.84;;;4.35;75.55
72587;BME280;60621;49.576;11.024;2022-12-04T03:42:26;98074.31;;;4.34;75.18
72587;BME280;60621;49.576;11.024;2022-12-04T03:45:02;98069.47;;;4.24;75.62
72587;BME280;60621;49.576;11.024;2022-12-04T03:46:08;98065.63;;;4.22;75.89
72587;BME280;60621;49.576;11.024;2022-12-04T03:47:17;98061.16;;;4.22;75.63
72587;BME280;60621;49.576;11.024;2022-12-04T03:49:46;98059.03;;;4.24;75.60
72587;BME280;60621;49.576;11.024;2022-12-04T03:50:51;98057.59;;;4.27;75.96
72587;BME280;60621;49.576;11.024;2022-12-04T03:52:13;98062.84;;;4.27;75.50
72587;BME280;60621;49.576;11.024;2022-12-04T03:53:21;98053.94;;;4.28;75.51
72587;BME280;60621;49.576;11.024;2022-12-04T03:55:06;98055.59;;;4.32;75.25
72587;BME280;60621;49.576;11.024;2022-12-04T03:56:24;98054.81;;;4.32;75.36
72587;BME280;60621;49.576;11.024;2022-12-04T03:57:30;98051.56;;;4.35;75.48
72587;BME280;60621;49.576;11.024;2022-12-04T03:58:34;98056.47;;;4.36;75.68
72587;BME280;60621;49.576;11.024;2022-12-04T03:59:52;98053.84;;;4.36;75.38
72587;BME280;60621;49.576;11.024;2022-12-04T04:00:58;98056.78;;;4.35;75.43
72587;BME280;60621;49.576;11.024;2022-12-04T04:02:03;98054.19;;;4.35;75.46
72587;BME280;60621;49.576;11.024;2022-12-04T04:04:14;98054.19;;;4.35;75.49
72587;BME280;60621;49.576;11.024;2022-12-04T04:05:16;98052.31;;;4.35;75.40
72587;BME280;60621;49.576;11.024;2022-12-04T04:06:26;98046.81;;;4.37;75.45
72587;BME280;60621;49.576;11.024;2022-12-04T04:07:34;98050.47;;;4.36;75.52
72587;BME280;60621;49.576;11.024;2022-12-04T04:08:40;98052.13;;;4.41;75.19
72587;BME280;60621;49.576;11.024;2022-12-04T04:09:46;98054.44;;;4.42;75.23
72587;BME280;60621;49.576;11.024;2022-12-04T04:10:52;98049.66;;;4.44;75.07
72587;BME280;60621;49.576;11.024;2022-12-04T04:12:05;98056.41;;;4.45;75.37
72587;BME280;60621;49.576;11.024;2022-12-04T04:13:13;98065.00;;;4.46;75.43
72587;BME280;60621;49.576;11.024;2022-12-04T04:14:52;98060.25;;;4.48;75.27
72587;BME280;60621;49.576;11.024;2022-12-04T04:16:15;98056.41;;;4.45;74.93
72587;BME280;60621;49.576;11.024;2022-12-04T04:17:41;98053.03;;;4.45;75.74
72587;BME280;60621;49.576;11.024;2022-12-04T04:19:10;98049.47;;;4.49;75.17
72587;BME280;60621;49.576;11.024;2022-12-04T04:20:38;98046.22;;;4.52;74.98
72587;BME280;60621;49.576;11.024;2022-12-04T04:22:02;98048.06;;;4.52;75.00
72587;BME280;60621;49.576;11.024;2022-12-04T04:23:26;98040.09;;;4.48;74.75
72587;BME280;60621;49.576;11.024;2022-12-04T04:24:54;98040.88;;;4.49;75.23
72587;BME280;60621;49.576;11.024;2022-12-04T04:25:59;98025.94;;;4.49;75.18
72587;BME280;60621;49.576;11.024;2022-12-04T04:27:03;98035.41;;;4.42;75.01
72587;BME280;60621;49.576;11.024;2022-12-04T04:28:25;98038.78;;;4.42;75.36
72587;BME280;60621;49.576;11.024;2022-12-04T04:29:26;98033.09;;;4.40;75.22
72587;BME280;60621;49.576;11.024;2022-12-04T04:30:30;98037.22;;;4.41;75.46
72587;BME280;60621;49.576;11.024;2022-12-04T04:31:38;98039.41;;;4.39;75.10
72587;BME280;60621;49.576;11.024;2022-12-04T04:35:22;98042.44;;;4.41;74.96
72587;BME280;60621;49.576;11.024;2022-12-04T04:36:36;98044.00;;;4.42;75.49
72587;BME280;60621;49.576;11.024;2022-12-04T04:37:57;98035.84;;;4.44;75.54
72587;BME280;60621;49.576;11.024;2022-12-04T04:39:15;98034.75;;;4.45;75.14
72587;BME280;60621;49.576;11.024;2022-12-04T04:41:34;98024.31;;;4.45;75.36
72587;BME280;60621;49.576;11.024;2022-12-04T04:42:47;98038.88;;;4.46;75.71
72587;BME280;60621;49.576;11.024;2022-12-04T04:43:58;98036.41;;;4.49;74.93
72587;BME280;60621;49.576;11.024;2022-12-04T04:45:07;98044.56;;;4.48;75.36
72587;BME280;60621;49.576;11.024;2022-12-04T04:46:42;98040.28;;;4.43;75.36
72587;BME280;60621;49.576;11.024;2022-12-04T04:48:01;98038.78;;;4.42;75.26
72587;BME280;60621;49.576;11.024;2022-12-04T04:49:07;98044.09;;;4.46;75.31
72587;BME280;60621;49.576;11.024;2022-12-04T04:50:11;98047.19;;;4.48;75.25
72587;BME280;60621;49.576;11.024;2022-12-04T04:51:15;98044.56;;;4.48;75.08
72587;BME280;60621;49.576;11.024;2022-12-04T04:52:19;98040.44;;;4.47;75.61
72587;BME280;60621;49.576;11.024;2022-12-04T04:53:25;98049.03;;;4.47;75.44
72587;BME280;60621;49.576;11.024;2022-12-04T04:54:31;98039.97;;;4.45;75.62
72587;BME280;60621;49.576;11.024;2022-12-04T04:55:34;98041.19;;;4.47;75.49
72587;BME280;60621;49.576;11.024;2022-12-04T04:56:44;98047.19;;;4.48;75.53
72587;BME280;60621;49.576;11.024;2022-12-04T04:57:46;98048.69;;;4.49;75.54
72587;BME280;60621;49.576;11.024;2022-12-04T04:58:47;98050.97;;;4.50;75.12
72587;BME280;60621;49.576;11.024;2022-12-04T04:59:49;98048.06;;;4.52;75.11
72587;BME280;60621;49.576;11.024;2022-12-04T05:01:01;98051.44;;;4.52;74.86
72587;BME280;60621;49.576;11.024;2022-12-04T05:02:03;98051.44;;;4.52;74.76
72587;BME280;60621;49.576;11.024;2022-12-04T05:03:05;98050.69;;;4.52;75.53
72587;BME280;60621;49.576;11.024;2022-12-04T05:04:07;98057.75;;;4.51;75.34
72587;BME280;60621;49.576;11.024;2022-12-04T05:05:09;98057.31;;;4.49;75.45
72587;BME280;60621;49.576;11.024;2022-12-04T05:06:10;98057.34;;;4.41;75.71
72587;BME280;60621;49.576;11.024;2022-12-04T05:07:12;98060.72;;;4.41;75.56
72587;BME280;60621;49.576;11.024;2022-12-04T05:08:13;98056.41;;;4.45;75.66
72587;BME280;60621;49.576;11.024;2022-12-04T05:09:16;98058.72;;;4.47;75.83
72587;BME280;60621;49.576;11.024;2022-12-04T05:10:17;98059.91;;;4.49;75.62
72587;BME280;60621;49.576;11.024;2022-12-04T05:11:19;98056.66;;;4.52;75.26
72587;BME280;60621;49.576;11.024;2022-12-04T05:12:21;98062.66;;;4.53;75.20
72587;BME280;60621;49.576;11.024;2022-12-04T05:13:22;98066.03;;;4.53;75.51
72587;BME280;60621;49.576;11.024;2022-12-04T05:14:24;98066.47;;;4.55;75.41
72587;BME280;60621;49.576;11.024;2022-12-04T05:15:26;98068.44;;;4.58;75.41
72587;BME280;60621;49.576;11.024;2022-12-04T05:16:27;98069.97;;;4.59;74.90
72587;BME280;60621;49.576;11.024;2022-12-04T05:17:29;98072.28;;;4.61;74.26
72587;BME280;60621;49.576;11.024;2022-12-04T05:18:31;98069.22;;;4.59;75.00
72587;BME280;60621;49.576;11.024;2022-12-04T05:19:33;98074.44;;;4.59;74.42
72587;BME280;60621;49.576;11.024;2022-12-04T05:20:54;98064.63;;;4.56;74.88
72587;BME280;60621;49.576;11.024;2022-12-04T05:21:56;98076.63;;;4.57;75.07
72587;BME280;60621;49.576;11.024;2022-12-04T05:22:57;98073.34;;;4.60;74.87
72587;BME280;60621;49.576;11.024;2022-12-04T05:23:59;98071.81;;;4.59;75.06
72587;BME280;60621;49.576;11.024;2022-12-04T05:25:02;98074.50;;;4.50;74.91
72587;BME280;60621;49.576;11.024;2022-12-04T05:26:04;98071.59;;;4.52;75.52
72587;BME280;60621;49.576;11.024;2022-12-04T05:27:05;98077.56;;;4.52;75.23
72587;BME280;60621;49.576;11.024;2022-12-04T05:28:07;98080.19;;;4.52;75.33
72587;BME280;60621;49.576;11.024;2022-12-04T05:29:08;98072.78;;;4.54;75.39
72587;BME280;60621;49.576;11.024;2022-12-04T05:30:10;98075.09;;;4.56;75.76
72587;BME280;60621;49.576;11.024;2022-12-04T05:31:12;98078.56;;;4.60;75.37
72587;BME280;60621;49.576;11.024;2022-12-04T05:32:14;98075.66;;;4.61;75.19
72587;BME280;60621;49.576;11.024;2022-12-04T05:33:15;98071.53;;;4.60;75.21
72587;BME280;60621;49.576;11.024;2022-12-04T05:34:17;98075.94;;;4.60;75.27
72587;BME280;60621;49.576;11.024;2022-12-04T05:35:18;98074.56;;;4.62;75.26
72587;BME280;60621;49.576;11.024;2022-12-04T05:36:20;98073.34;;;4.60;74.93
72587;BME280;60621;49.576;11.024;2022-12-04T05:37:22;98077.81;;;4.59;75.21
72587;BME280;60621;49.576;11.024;2022-12-04T05:38:23;98077.03;;;4.59;74.99
72587;BME280;60621;49.576;11.024;2022-12-04T05:39:25;98071.53;;;4.60;75.62
72587;BME280;60621;49.576;11.024;2022-12-04T05:40:26;98078.69;;;4.63;75.32
72587;BME280;60621;49.576;11.024;2022-12-04T05:41:28;98072.84;;;4.67;75.40
72587;BME280;60621;49.576;11.024;2022-12-04T05:42:30;98076.84;;;4.64;75.18
72587;BME280;60621;49.576;11.024;2022-12-04T05:43:32;98076.41;;;4.62;74.87
72587;BME280;60621;49.576;11.024;2022-12-04T05:44:33;98077.03;;;4.59;75.33
72587;BME280;60621;49.576;11.024;2022-12-04T05:45:36;98077.50;;;4.61;75.26
72587;BME280;60621;49.576;11.024;2022-12-04T05:46:37;98079.47;;;4.64;75.31
72587;BME280;60621;49.576;11.024;2022-12-04T05:47:40;98076.09;;;4.63;75.12
72587;BME280;60621;49.576;11.024;2022-12-04T05:48:42;98079.47;;;4.64;74.87
72587;BME280;60621;49.576;11.024;2022-12-04T05:49:43;98075.31;;;4.63;75.35
72587;BME280;60621;49.576;11.024;2022-12-04T05:50:45;98077.94;;;4.63;74.89
72587;BME280;60621;49.576;11.024;2022-12-04T05:51:48;98076.22;;;4.67;74.94
72587;BME280;60621;49.576;11.024;2022-12-04T05:52:50;98075.13;;;4.68;75.26
72587;BME280;60621;49.576;11.024;2022-12-04T05:53:52;98078.69;;;4.63;75.13
72587;BME280;60621;49.576;11.024;2022-12-04T05:54:53;98073.16;;;4.65;74.83
72587;BME280;60621;49.576;11.024;2022-12-04T05:56:00;98071.75;;;4.68;74.69
72587;BME280;60621;49.576;11.024;2022-12-04T05:57:02;98077.31;;;4.66;74.98
72587;BME280;60621;49.576;11.024;2022-12-04T05:58:03;98076.53;;;4.66;75.36
72587;BME280;60621;49.576;11.024;2022-12-04T05:59:05;98072.72;;;4.63;74.77
72587;BME280;60621;49.576;11.024;2022-12-04T06:00:07;98071.31;;;4.66;74.99
72587;BME280;60621;49.576;11.024;2022-12-04T06:01:20;98078.84;;;4.67;74.71
72587;BME280;60621;49.576;11.024;2022-12-04T06:02:22;98081.78;;;4.66;74.58
72587;BME280;60621;49.576;11.024;2022-12-04T06:03:24;98087.63;;;4.62;75.38
72587;BME280;60621;49.576;11.024;2022-12-04T06:04:25;98086.88;;;4.62;75.21
72587;BME280;60621;49.576;11.024;2022-12-04T06:05:27;98082.41;;;4.62;75.21
72587;BME280;60621;49.576;11.024;2022-12-04T06:06:29;98089.63;;;4.66;75.89
72587;BME280;60621;49.576;11.024;2022-12-04T06:07:30;98089.28;;;4.67;74.87
72587;BME280;60621;49.576;11.024;2022-12-04T06:08:32;98090.66;;;4.65;75.12
72587;BME280;60621;49.576;11.024;2022-12-04T06:09:33;98095.59;;;4.66;75.05
72587;BME280;60621;49.576;11.024;2022-12-04T06:10:35;98098.97;;;4.67;74.77
72587;BME280;60621;49.576;11.024;2022-12-04T06:11:38;98094.19;;;4.69;75.40
72587;BME280;60621;49.576;11.024;2022-12-04T06:12:39;98095.28;;;4.68;74.82
72587;BME280;60621;49.576;11.024;2022-12-04T06:13:42;98093.41;;;4.68;75.00
72587;BME280;60621;49.576;11.024;2022-12-04T06:14:44;98096.78;;;4.69;75.53
72587;BME280;60621;49.576;11.024;2022-12-04T06:15:45;98105.09;;;4.71;75.25
72587;BME280;60621;49.576;11.024;2022-12-04T06:16:47;98103.53;;;4.70;74.73
72587;BME280;60621;49.576;11.024;2022-12-04T06:17:49;98100.94;;;4.70;75.10
72587;BME280;60621;49.576;11.024;2022-12-04T06:18:52;98108.13;;;4.73;74.91
72587;BME280;60621;49.576;11.024;2022-12-04T06:19:54;98106.75;;;4.75;75.22